^^
Station Historical Data
Daily Summary for April 4, 2017 Units:  English    Metric   Both
« Previous Day
Next Day »
Daily Weekly Monthly Yearly Custom
  High: Low: Average:
Temperature: 72.5 °F 47.7 °F 59 °F
Dew Point: 60.8 °F 43.9 °F 51.5 °F
Humidity: 97 % 44 % 79 %
Wind Speed: 12.6 mph 0.0 mph 2.4 mph
Wind Gust: 21.9 mph - -
Wind:- - SW
Pressure: 29.74 in 29.52 in -
Precipitation: 0.36 in    
Historical Graphs
 
 
Tabular Data for April 4, 2017
Time Temperature Dew Point Pressure Wind Wind Speed Wind Gust Humidity Rainfall Rate (Hourly) solar Conditions
00:03 49.0 °F 44.7 °F 29.74 in Calm     85 % 0.01 in 0.0 W/m2 RA
00:08 48.7 °F 44.7 °F 29.74 in Calm     86 % 0.02 in 0.0 W/m2 RA
00:13 48.6 °F 44.6 °F 29.73 in East 1.3 mph 3.5 mph 86 % 0.03 in 0.0 W/m2 RA
00:18 48.4 °F 44.7 °F 29.72 in East 1.8 mph 3.5 mph 87 % 0.04 in 0.0 W/m2 RA
00:23 48.3 °F 44.6 °F 29.72 in Calm     87 % 0.04 in 0.0 W/m2 RA
00:24 48.3 °F 44.6 °F 29.72 in Calm     87 % 0.05 in 0.0 W/m2 RA
00:29 48.3 °F 44.9 °F 29.71 in East 0.8 mph 3.5 mph 88 % 0.04 in 0.0 W/m2 RA
00:34 48.4 °F 45.0 °F 29.71 in Calm     88 % 0.05 in 0.0 W/m2 RA
00:39 48.3 °F 44.9 °F 29.71 in NE 3.4 mph 6.9 mph 88 % 0.07 in 0.0 W/m2 RA
00:44 48.1 °F 45.0 °F 29.70 in ENE 1.6 mph 3.5 mph 89 % 0.09 in 0.0 W/m2 RA
00:49 48.0 °F 44.9 °F 29.69 in Calm     89 % 0.10 in 0.0 W/m2 RA
00:54 47.8 °F 44.7 °F 29.69 in ENE 0.8 mph 3.5 mph 89 % 0.12 in 0.0 W/m2 RA
00:59 47.7 °F 44.9 °F 29.69 in ESE 1.2 mph 5.8 mph 90 % 0.14 in 0.0 W/m2 RA
01:04 47.7 °F 44.9 °F 29.68 in ESE 1.3 mph 7.0 mph 90 % 0.19 in 0.0 W/m2 RA
01:09 47.7 °F 44.9 °F 29.68 in SE 0.4 mph 8.0 mph 90 % 0.18 in 0.0 W/m2 RA
01:14 47.8 °F 45.3 °F 29.67 in ESE 5.6 mph 7.0 mph 91 % 0.18 in 0.0 W/m2 RA
01:16 47.9 °F 45.4 °F 29.68 in SE 2.3 mph 3.5 mph 91 % 0.18 in 0.0 W/m2 RA
01:21 48.3 °F 45.8 °F 29.68 in ESE 0.6 mph 3.0 mph 91 % 0.17 in 0.0 W/m2
01:26 48.8 °F 46.3 °F 29.68 in SSE 4.7 mph 16.1 mph 91 % 0.16 in 0.0 W/m2
01:31 49.3 °F 46.8 °F 29.67 in ESE 5.2 mph 10.4 mph 91 % 0.15 in 0.0 W/m2
01:36 49.5 °F 47.0 °F 29.67 in South 5.1 mph 10.4 mph 91 % 0.14 in 0.0 W/m2
01:41 49.7 °F 47.2 °F 29.67 in South 4.0 mph 8.1 mph 91 % 0.10 in 0.0 W/m2
01:46 49.7 °F 47.5 °F 29.67 in SE 0.5 mph 3.5 mph 92 % 0.07 in 0.0 W/m2
01:51 49.8 °F 47.6 °F 29.67 in South 3.5 mph 6.9 mph 92 % 0.05 in 0.0 W/m2
01:56 49.9 °F 47.7 °F 29.66 in South 2.6 mph 5.0 mph 92 % 0.04 in 0.0 W/m2
02:01 49.9 °F 47.7 °F 29.66 in South 0.3 mph 2.3 mph 92 % 0.02 in 0.0 W/m2
02:06 50.1 °F 47.9 °F 29.66 in SE 1.6 mph 4.6 mph 92 % 0.01 in 0.0 W/m2
02:11 50.1 °F 47.9 °F 29.65 in South 2.2 mph 5.0 mph 92 % 0.00 in 0.0 W/m2 CLR
02:16 50.2 °F 48.0 °F 29.65 in ESE 3.3 mph 5.8 mph 92 % 0.00 in 0.0 W/m2 CLR
02:21 50.3 °F 48.1 °F 29.65 in SSE 0.2 mph 3.5 mph 92 % 0.00 in 0.0 W/m2 CLR
02:26 50.5 °F 48.3 °F 29.64 in South 1.0 mph 4.6 mph 92 % 0.00 in 0.0 W/m2 CLR
02:31 50.7 °F 48.7 °F 29.64 in SSE 1.2 mph 5.8 mph 93 % 0.00 in 0.0 W/m2 CLR
02:36 50.8 °F 48.8 °F 29.64 in Calm     93 % 0.00 in 0.0 W/m2 CLR
02:41 50.8 °F 48.8 °F 29.63 in Calm     93 % 0.01 in 0.0 W/m2 RA
02:46 51.0 °F 49.0 °F 29.64 in Calm   3.5 mph 93 % 0.01 in 0.0 W/m2 RA
02:51 51.2 °F 49.2 °F 29.63 in Calm     93 % 0.01 in 0.0 W/m2
02:56 51.4 °F 49.4 °F 29.63 in Calm     93 % 0.01 in 0.0 W/m2
03:01 51.4 °F 49.4 °F 29.63 in Calm     93 % 0.01 in 0.0 W/m2
03:06 51.4 °F 49.4 °F 29.63 in NW 3.1 mph 4.0 mph 93 % 0.01 in 0.0 W/m2
03:11 51.2 °F 49.2 °F 29.63 in Calm     93 % 0.02 in 0.0 W/m2 RA
03:16 51.1 °F 49.1 °F 29.63 in Calm     93 % 0.02 in 0.0 W/m2 RA
03:21 51.1 °F 49.1 °F 29.62 in Calm     93 % 0.02 in 0.0 W/m2
03:26 51.0 °F 49.3 °F 29.62 in Calm     94 % 0.02 in 0.0 W/m2
03:31 51.1 °F 49.4 °F 29.62 in Calm     94 % 0.02 in 0.0 W/m2
03:36 51.1 °F 49.4 °F 29.62 in Calm     94 % 0.02 in 0.0 W/m2
03:41 51.2 °F 49.5 °F 29.61 in Calm     94 % 0.02 in 0.0 W/m2 RA
03:46 51.3 °F 49.6 °F 29.61 in Calm     94 % 0.02 in 0.0 W/m2 RA
03:51 51.3 °F 49.6 °F 29.61 in Calm     94 % 0.02 in 0.0 W/m2
03:56 51.4 °F 49.7 °F 29.61 in Calm     94 % 0.02 in 0.0 W/m2
04:01 51.4 °F 49.7 °F 29.61 in Calm     94 % 0.02 in 0.0 W/m2
04:06 51.4 °F 49.7 °F 29.61 in Calm     94 % 0.02 in 0.0 W/m2
04:11 51.5 °F 49.8 °F 29.60 in Calm     94 % 0.01 in 0.0 W/m2
04:16 51.5 °F 49.8 °F 29.60 in Calm     94 % 0.01 in 0.0 W/m2
04:21 51.7 °F 50.0 °F 29.60 in Calm     94 % 0.01 in 0.0 W/m2
04:26 51.8 °F 50.1 °F 29.59 in Calm     94 % 0.01 in 0.0 W/m2
04:31 52.0 °F 50.6 °F 29.59 in Calm     95 % 0.01 in 0.0 W/m2
04:36 52.3 °F 50.9 °F 29.59 in Calm     95 % 0.01 in 0.0 W/m2
04:41 52.6 °F 51.2 °F 29.59 in Calm     95 % 0.00 in 0.0 W/m2
04:42 52.6 °F 51.2 °F 29.60 in NW 0.3 mph 5.0 mph 95 % 0.00 in 0.0 W/m2 CLR
04:47 52.0 °F 50.3 °F 29.59 in NNW 0.6 mph 3.5 mph 94 % 0.00 in 0.0 W/m2 CLR
04:52 51.8 °F 50.1 °F 29.59 in Calm     94 % 0.00 in 0.0 W/m2 CLR
04:57 51.6 °F 49.9 °F 29.59 in Calm     94 % 0.00 in 0.0 W/m2 CLR
05:02 51.5 °F 50.1 °F 29.58 in North 2.6 mph 3.5 mph 95 % 0.00 in 0.0 W/m2 CLR
05:07 51.3 °F 49.9 °F 29.58 in North 2.2 mph 3.5 mph 95 % 0.00 in 0.0 W/m2 CLR
05:12 51.3 °F 49.9 °F 29.58 in Calm     95 % 0.00 in 0.0 W/m2 CLR
05:17 51.4 °F 50.0 °F 29.58 in Calm     95 % 0.00 in 0.0 W/m2 CLR
05:22 51.4 °F 50.0 °F 29.58 in Calm     95 % 0.00 in 0.0 W/m2 CLR
05:27 51.5 °F 50.1 °F 29.58 in Calm     95 % 0.00 in 0.0 W/m2 CLR
05:32 51.4 °F 50.0 °F 29.58 in Calm     95 % 0.00 in 0.0 W/m2 CLR
05:37 51.3 °F 49.9 °F 29.58 in Calm     95 % 0.00 in 0.0 W/m2 CLR
05:42 51.3 °F 49.9 °F 29.59 in Calm     95 % 0.00 in 0.0 W/m2 CLR
05:47 51.3 °F 49.9 °F 29.59 in Calm     95 % 0.00 in 0.0 W/m2 CLR
05:52 51.3 °F 49.9 °F 29.59 in North 0.6 mph 1.0 mph 95 % 0.00 in 0.0 W/m2 CLR
05:57 51.2 °F 49.8 °F 29.59 in Calm     95 % 0.00 in 0.0 W/m2 CLR
06:02 51.2 °F 49.8 °F 29.59 in Calm     95 % 0.00 in 0.0 W/m2 CLR
06:07 51.3 °F 49.9 °F 29.58 in Calm     95 % 0.00 in 0.0 W/m2 CLR
06:12 51.2 °F 49.8 °F 29.58 in Calm     95 % 0.00 in 0.0 W/m2 CLR
06:17 51.2 °F 49.8 °F 29.58 in Calm     95 % 0.00 in 0.0 W/m2 CLR
06:22 51.2 °F 49.8 °F 29.58 in Calm     95 % 0.00 in 0.0 W/m2 CLR
06:27 51.1 °F 49.7 °F 29.58 in Calm     95 % 0.00 in 0.0 W/m2 CLR
06:32 51.2 °F 49.8 °F 29.58 in Calm     95 % 0.00 in 0.0 W/m2 CLR
06:37 51.3 °F 49.9 °F 29.58 in Calm     95 % 0.00 in 0.0 W/m2 CLR
06:42 51.3 °F 49.9 °F 29.58 in Calm     95 % 0.00 in 0.0 W/m2 CLR
06:47 51.3 °F 49.9 °F 29.58 in North 0.7 mph 3.0 mph 95 % 0.00 in 0.0 W/m2 CLR
06:52 51.4 °F 50.0 °F 29.58 in Calm     95 % 0.00 in 0.0 W/m2 CLR
06:57 51.4 °F 50.0 °F 29.58 in Calm     95 % 0.00 in 0.0 W/m2 CLR
07:02 51.4 °F 50.0 °F 29.58 in Calm     95 % 0.00 in 0.0 W/m2 CLR
07:07 51.5 °F 50.1 °F 29.58 in Calm     95 % 0.00 in 5.0 W/m2 CLR
07:12 51.5 °F 50.1 °F 29.58 in Calm     95 % 0.00 in 5.0 W/m2 CLR
07:17 51.5 °F 50.4 °F 29.58 in Calm     96 % 0.00 in 7.0 W/m2 CLR
07:22 51.6 °F 50.5 °F 29.58 in Calm     96 % 0.00 in 7.0 W/m2 CLR
07:27 51.7 °F 50.6 °F 29.58 in Calm     96 % 0.00 in 11.0 W/m2 OVC
07:32 51.7 °F 50.6 °F 29.58 in Calm     96 % 0.00 in 12.0 W/m2 OVC
07:37 51.9 °F 50.8 °F 29.58 in Calm     96 % 0.00 in 9.0 W/m2 OVC
07:42 51.9 °F 50.8 °F 29.58 in Calm     96 % 0.00 in 14.0 W/m2 OVC
07:47 52.0 °F 50.9 °F 29.58 in Calm     96 % 0.00 in 16.0 W/m2 OVC
07:53 52.1 °F 51.0 °F 29.58 in Calm     96 % 0.00 in 12.0 W/m2 OVC
07:58 52.2 °F 51.1 °F 29.58 in Calm     96 % 0.00 in 11.0 W/m2 OVC
08:03 52.2 °F 51.1 °F 29.58 in Calm     96 % 0.00 in 11.0 W/m2 OVC
08:08 52.4 °F 51.3 °F 29.58 in Calm     96 % 0.00 in 12.0 W/m2 OVC
08:13 52.5 °F 51.4 °F 29.58 in North 1.2 mph 3.5 mph 96 % 0.00 in 21.0 W/m2 OVC
08:18 52.4 °F 51.3 °F 29.57 in Calm     96 % 0.00 in 19.0 W/m2 OVC
08:23 52.4 °F 51.3 °F 29.57 in North 1.9 mph 3.5 mph 96 % 0.00 in 49.0 W/m2 OVC
08:28 52.6 °F 51.5 °F 29.57 in Calm     96 % 0.00 in 60.0 W/m2 OVC
08:33 52.6 °F 51.5 °F 29.57 in Calm     96 % 0.00 in 47.0 W/m2 OVC
08:38 52.7 °F 51.6 °F 29.57 in North 0.4 mph 3.0 mph 96 % 0.00 in 47.0 W/m2 OVC
08:43 52.7 °F 51.6 °F 29.57 in North 0.2 mph 3.0 mph 96 % 0.00 in 44.0 W/m2 OVC
08:48 52.8 °F 51.7 °F 29.57 in Calm     96 % 0.00 in 58.0 W/m2 OVC
08:53 52.8 °F 51.7 °F 29.57 in Calm     96 % 0.00 in 37.0 W/m2 OVC
08:58 52.8 °F 51.7 °F 29.57 in Calm     96 % 0.00 in 35.0 W/m2 OVC
09:03 52.8 °F 51.7 °F 29.57 in Calm     96 % 0.00 in 47.0 W/m2 OVC
09:08 52.8 °F 51.7 °F 29.57 in Calm     96 % 0.00 in 72.0 W/m2 OVC
09:13 53.1 °F 52.0 °F 29.57 in Calm     96 % 0.00 in 125.0 W/m2 BKN
09:18 53.2 °F 52.1 °F 29.57 in North 2.1 mph 3.5 mph 96 % 0.00 in 132.0 W/m2 BKN
09:23 53.2 °F 52.1 °F 29.57 in Calm     96 % 0.00 in 97.0 W/m2 OVC
09:28 53.5 °F 52.4 °F 29.56 in Calm     96 % 0.00 in 192.0 W/m2 BKN
09:33 53.8 °F 52.7 °F 29.56 in Calm     96 % 0.00 in 95.0 W/m2 OVC
09:38 53.8 °F 52.7 °F 29.57 in Calm     96 % 0.00 in 84.0 W/m2 OVC
09:43 54.0 °F 52.9 °F 29.57 in Calm     96 % 0.00 in 81.0 W/m2 OVC
09:48 54.2 °F 53.1 °F 29.57 in Calm     96 % 0.01 in 72.0 W/m2 RA
09:53 54.2 °F 53.1 °F 29.56 in Calm     96 % 0.01 in 69.0 W/m2 RA
09:58 54.2 °F 53.1 °F 29.56 in Calm     96 % 0.02 in 72.0 W/m2 RA
10:03 54.3 °F 53.2 °F 29.56 in Calm     96 % 0.02 in 86.0 W/m2 RA
10:08 54.2 °F 53.1 °F 29.56 in North 0.9 mph 4.0 mph 96 % 0.02 in 83.0 W/m2 OVC
10:13 54.2 °F 53.1 °F 29.56 in Calm     96 % 0.02 in 70.0 W/m2 OVC
10:21 54.3 °F 53.2 °F 29.56 in Calm     96 % 0.02 in 118.0 W/m2 RA
10:26 54.3 °F 53.2 °F 29.56 in Calm     96 % 0.02 in 128.0 W/m2 RA
10:31 54.5 °F 53.4 °F 29.56 in Calm     96 % 0.02 in 74.0 W/m2 OVC
10:36 54.6 °F 53.5 °F 29.56 in Calm     96 % 0.02 in 107.0 W/m2 OVC
10:41 54.8 °F 53.7 °F 29.56 in Calm     96 % 0.02 in 144.0 W/m2 OVC
10:46 54.9 °F 53.8 °F 29.56 in Calm     96 % 0.02 in 204.0 W/m2 BKN
10:51 55.1 °F 54.3 °F 29.56 in Calm     97 % 0.01 in 232.0 W/m2 BKN
10:56 55.4 °F 54.3 °F 29.56 in Calm   3.5 mph 96 % 0.01 in 269.0 W/m2 BKN
11:01 55.7 °F 54.9 °F 29.55 in North 2.3 mph 3.5 mph 97 % 0.00 in 374.0 W/m2 SCT
11:06 56.1 °F 55.3 °F 29.55 in North 1.6 mph 3.0 mph 97 % 0.00 in 274.0 W/m2 BKN
11:11 56.3 °F 55.2 °F 29.54 in North 0.3 mph 3.5 mph 96 % 0.00 in 396.0 W/m2 SCT
11:16 56.7 °F 55.6 °F 29.54 in Calm   3.5 mph 96 % 0.00 in 352.0 W/m2 SCT
11:21 56.4 °F 55.3 °F 29.54 in Calm     96 % 0.00 in 244.0 W/m2 BKN
11:26 56.5 °F 55.4 °F 29.54 in Calm     96 % 0.00 in 167.0 W/m2 BKN
11:31 56.8 °F 55.7 °F 29.54 in North 0.2 mph 3.5 mph 96 % 0.00 in 341.0 W/m2 BKN
11:37 57.5 °F 56.7 °F 29.54 in Calm     97 % 0.00 in 457.0 W/m2 FEW
11:42 58.2 °F 57.1 °F 29.54 in North 0.3 mph 2.0 mph 96 % 0.00 in 434.0 W/m2 SCT
11:47 58.0 °F 56.9 °F 29.54 in North 0.8 mph 2.3 mph 96 % 0.00 in 410.0 W/m2 SCT
11:52 58.3 °F 57.2 °F 29.54 in Calm     96 % 0.00 in 475.0 W/m2 SCT
11:57 58.3 °F 56.9 °F 29.54 in Calm     95 % 0.00 in 246.0 W/m2 BKN
12:02 58.5 °F 57.1 °F 29.54 in NNE 1.9 mph 5.0 mph 95 % 0.00 in 116.0 W/m2 OVC
12:07 58.6 °F 57.2 °F 29.54 in NNE 3.1 mph 5.0 mph 95 % 0.00 in 239.0 W/m2 BKN
12:12 58.9 °F 57.5 °F 29.54 in NNE 0.6 mph 3.5 mph 95 % 0.00 in 309.0 W/m2 BKN
12:17 59.0 °F 57.6 °F 29.54 in Calm   1.0 mph 95 % 0.00 in 253.0 W/m2 BKN
12:22 59.0 °F 57.3 °F 29.54 in Calm     94 % 0.00 in 446.0 W/m2 SCT
12:27 59.7 °F 58.0 °F 29.54 in North 0.7 mph 3.0 mph 94 % 0.00 in 163.0 W/m2 OVC
12:32 60.1 °F 58.1 °F 29.54 in Calm     93 % 0.00 in 185.0 W/m2 OVC
12:37 60.3 °F 58.3 °F 29.55 in Calm     93 % 0.00 in 127.0 W/m2 OVC
12:42 60.5 °F 58.2 °F 29.54 in Calm   1.2 mph 92 % 0.00 in 167.0 W/m2 OVC
12:47 60.6 °F 58.3 °F 29.55 in Calm     92 % 0.00 in 95.0 W/m2 OVC
12:52 60.5 °F 58.2 °F 29.55 in North 2.8 mph 3.5 mph 92 % 0.00 in 193.0 W/m2 OVC
12:57 60.6 °F 58.0 °F 29.55 in North 1.2 mph 3.5 mph 91 % 0.00 in 102.0 W/m2 OVC
13:02 60.9 °F 58.3 °F 29.55 in Calm     91 % 0.00 in 83.0 W/m2 OVC
13:07 61.0 °F 58.4 °F 29.55 in WNW 5.5 mph 8.1 mph 91 % 0.01 in 132.0 W/m2 RA
13:12 61.0 °F 58.4 °F 29.55 in WNW 4.9 mph 9.2 mph 91 % 0.01 in 42.0 W/m2 RA
13:18 60.9 °F 58.3 °F 29.55 in WSW 3.6 mph 8.1 mph 91 % 0.07 in 90.0 W/m2 RA
13:23 60.5 °F 57.9 °F 29.55 in West 0.1 mph 1.2 mph 91 % 0.09 in 338.0 W/m2 RA
13:28 60.9 °F 58.6 °F 29.55 in West 0.2 mph 1.2 mph 92 % 0.09 in 466.0 W/m2 RA
13:33 61.6 °F 59.3 °F 29.54 in West 2.2 mph 6.0 mph 92 % 0.09 in 360.0 W/m2 FEW
13:38 62.1 °F 59.4 °F 29.54 in West 0.1 mph 1.2 mph 91 % 0.09 in 1079.0 W/m2 CLR
13:43 62.7 °F 59.7 °F 29.54 in West 5.2 mph 9.2 mph 90 % 0.09 in 956.0 W/m2 CLR
13:48 63.6 °F 60.3 °F 29.54 in SW 6.7 mph 11.5 mph 89 % 0.09 in 867.0 W/m2 CLR
13:53 64.0 °F 60.1 °F 29.54 in West 1.1 mph 6.9 mph 87 % 0.09 in 886.0 W/m2 CLR
13:58 64.6 °F 60.6 °F 29.54 in Calm   3.5 mph 87 % 0.09 in 949.0 W/m2 FEW
14:03 65.2 °F 60.6 °F 29.54 in SW 1.3 mph 3.5 mph 85 % 0.09 in 290.0 W/m2 BKN
14:08 65.0 °F 60.0 °F 29.54 in WSW 7.5 mph 10.4 mph 84 % 0.08 in 925.0 W/m2 CLR
14:13 65.3 °F 60.0 °F 29.54 in WSW 3.9 mph 6.0 mph 83 % 0.07 in 1074.0 W/m2 CLR
14:18 65.8 °F 60.8 °F 29.54 in WNW 2.0 mph 5.8 mph 84 % 0.01 in 513.0 W/m2 FEW
14:23 66.0 °F 60.0 °F 29.54 in West 6.3 mph 11.5 mph 81 % 0.00 in 1065.0 W/m2 CLR
14:28 67.1 °F 60.7 °F 29.54 in WNW 4.4 mph 9.2 mph 80 % 0.00 in 747.0 W/m2 CLR
14:33 67.5 °F 60.0 °F 29.54 in WSW 6.9 mph 11.5 mph 77 % 0.00 in 446.0 W/m2 FEW
14:38 67.0 °F 59.2 °F 29.54 in WSW 9.3 mph 15.0 mph 76 % 0.00 in 373.0 W/m2 SCT
14:43 66.9 °F 59.1 °F 29.54 in West 6.2 mph 9.0 mph 76 % 0.00 in 469.0 W/m2 SCT
14:48 67.3 °F 59.8 °F 29.53 in WNW 3.0 mph 11.0 mph 77 % 0.00 in 193.0 W/m2 BKN
14:53 67.0 °F 59.2 °F 29.53 in WSW 0.7 mph 4.0 mph 76 % 0.00 in 297.0 W/m2 BKN
14:58 67.5 °F 59.7 °F 29.54 in West 7.5 mph 11.5 mph 76 % 0.00 in 826.0 W/m2 CLR
14:59 67.5 °F 59.7 °F 29.54 in West 8.5 mph 11.5 mph 76 % 0.00 in 972.0 W/m2 CLR
15:04 68.1 °F 59.1 °F 29.54 in WSW 3.3 mph 11.5 mph 73 % 0.00 in 420.0 W/m2 SCT
15:09 68.1 °F 59.5 °F 29.54 in West 3.5 mph 9.0 mph 74 % 0.00 in 316.0 W/m2 BKN
15:14 67.8 °F 58.8 °F 29.54 in WSW 7.2 mph 11.5 mph 73 % 0.00 in 703.0 W/m2 CLR
15:19 67.8 °F 58.4 °F 29.53 in West 1.5 mph 3.5 mph 72 % 0.00 in 243.0 W/m2 BKN
15:24 67.7 °F 58.7 °F 29.53 in SW 0.9 mph 3.5 mph 73 % 0.00 in 345.0 W/m2 SCT
15:29 67.9 °F 58.9 °F 29.54 in SW 6.4 mph 11.5 mph 73 % 0.00 in 431.0 W/m2 FEW
15:34 68.3 °F 58.9 °F 29.53 in WSW 1.4 mph 4.6 mph 72 % 0.00 in 872.0 W/m2 CLR
15:39 69.1 °F 59.3 °F 29.53 in SSW 3.1 mph 6.9 mph 71 % 0.00 in 693.0 W/m2 CLR
15:44 69.4 °F 58.8 °F 29.53 in WSW 0.6 mph 4.6 mph 69 % 0.00 in 747.0 W/m2 CLR
15:49 69.7 °F 58.3 °F 29.53 in West 4.2 mph 9.2 mph 67 % 0.00 in 664.0 W/m2 CLR
15:54 69.5 °F 58.5 °F 29.53 in WNW 0.6 mph 5.0 mph 68 % 0.00 in 652.0 W/m2 CLR
15:59 70.2 °F 58.3 °F 29.53 in SW 3.9 mph 8.1 mph 66 % 0.00 in 404.0 W/m2 CLR
16:04 70.0 °F 58.1 °F 29.53 in SW 3.9 mph 11.5 mph 66 % 0.00 in 643.0 W/m2 CLR
16:09 69.9 °F 57.6 °F 29.53 in WSW 5.3 mph 9.2 mph 65 % 0.00 in 599.0 W/m2 CLR
16:14 70.1 °F 57.4 °F 29.53 in West 0.8 mph 5.8 mph 64 % 0.00 in 585.0 W/m2 CLR
16:19 70.5 °F 57.7 °F 29.52 in West 2.7 mph 12.7 mph 64 % 0.00 in 570.0 W/m2 CLR
16:24 70.6 °F 57.4 °F 29.53 in West 9.8 mph 13.8 mph 63 % 0.00 in 613.0 W/m2 CLR
16:29 70.4 °F 57.6 °F 29.53 in WSW 4.4 mph 6.9 mph 64 % 0.00 in 183.0 W/m2 CLR
16:34 70.2 °F 57.4 °F 29.53 in WSW 1.9 mph 5.8 mph 64 % 0.00 in 628.0 W/m2 FEW
16:39 70.8 °F 57.6 °F 29.53 in WSW 6.0 mph 8.1 mph 63 % 0.00 in 536.0 W/m2 CLR
16:44 70.4 °F 57.6 °F 29.53 in West 0.1 mph 3.5 mph 64 % 0.00 in 230.0 W/m2 SCT
16:49 70.8 °F 58.0 °F 29.53 in SW 1.9 mph 5.0 mph 64 % 0.00 in 545.0 W/m2 CLR
16:54 71.2 °F 58.0 °F 29.54 in West 2.8 mph 6.9 mph 63 % 0.00 in 533.0 W/m2 CLR
16:59 71.7 °F 58.9 °F 29.54 in SW 1.4 mph 3.5 mph 64 % 0.00 in 512.0 W/m2 CLR
17:04 71.9 °F 58.2 °F 29.54 in WSW 6.7 mph 10.4 mph 62 % 0.00 in 490.0 W/m2 CLR
17:09 71.5 °F 57.8 °F 29.54 in WSW 2.3 mph 6.9 mph 62 % 0.00 in 83.0 W/m2 CLR
17:15 71.5 °F 57.8 °F 29.54 in WSW 9.5 mph 18.4 mph 62 % 0.00 in 466.0 W/m2 CLR
17:20 72.0 °F 58.3 °F 29.54 in SW 1.9 mph 10.4 mph 62 % 0.00 in 381.0 W/m2 CLR
17:25 72.2 °F 56.6 °F 29.54 in SW 10.0 mph 16.0 mph 58 % 0.00 in 399.0 W/m2 CLR
17:30 72.2 °F 56.1 °F 29.54 in SW 6.1 mph 13.8 mph 57 % 0.00 in 352.0 W/m2 CLR
17:35 72.4 °F 55.8 °F 29.54 in SW 9.2 mph 13.8 mph 56 % 0.00 in 336.0 W/m2 CLR
17:40 72.5 °F 55.4 °F 29.54 in WSW 6.6 mph 13.8 mph 55 % 0.00 in 315.0 W/m2 CLR
17:45 72.3 °F 55.2 °F 29.55 in SW 9.7 mph 17.3 mph 55 % 0.00 in 308.0 W/m2 CLR
17:50 72.2 °F 55.6 °F 29.55 in South 4.5 mph 8.1 mph 56 % 0.00 in 84.0 W/m2 BKN
17:55 71.8 °F 55.3 °F 29.55 in SW 10.4 mph 14.0 mph 56 % 0.00 in 294.0 W/m2 CLR
18:00 71.9 °F 55.3 °F 29.56 in WSW 10.1 mph 12.7 mph 56 % 0.00 in 251.0 W/m2 CLR
18:05 71.9 °F 55.3 °F 29.56 in SW 9.2 mph 14.0 mph 56 % 0.00 in 207.0 W/m2 CLR
18:10 71.7 °F 55.7 °F 29.57 in SW 6.2 mph 11.5 mph 57 % 0.00 in 69.0 W/m2 BKN
18:12 71.5 °F 55.5 °F 29.57 in WSW 4.2 mph 11.5 mph 57 % 0.00 in 202.0 W/m2 BKN
18:17 71.6 °F 55.6 °F 29.57 in WSW 9.3 mph 11.5 mph 57 % 0.00 in 193.0 W/m2 CLR
18:22 71.7 °F 55.2 °F 29.56 in WSW 8.3 mph 9.0 mph 56 % 0.00 in 146.0 W/m2 CLR
18:27 71.7 °F 55.2 °F 29.57 in SW 4.4 mph 11.5 mph 56 % 0.00 in 132.0 W/m2 CLR
18:32 71.7 °F 54.7 °F 29.57 in SW 9.9 mph 12.7 mph 55 % 0.00 in 109.0 W/m2 CLR
18:37 71.5 °F 54.0 °F 29.57 in SW 5.8 mph 11.5 mph 54 % 0.00 in 83.0 W/m2 FEW
18:42 71.3 °F 54.3 °F 29.57 in WSW 5.6 mph 11.5 mph 55 % 0.00 in 67.0 W/m2 SCT
18:47 71.1 °F 54.1 °F 29.57 in WSW 8.2 mph 10.4 mph 55 % 0.00 in 25.0 W/m2 SCT
18:52 70.8 °F 52.8 °F 29.58 in West 10.8 mph 19.6 mph 53 % 0.00 in 21.0 W/m2 OVC
18:57 70.5 °F 52.5 °F 29.59 in West 7.4 mph 12.7 mph 53 % 0.00 in 21.0 W/m2 BKN
19:02 70.3 °F 52.4 °F 29.59 in SW 5.6 mph 10.4 mph 53 % 0.00 in 30.0 W/m2 SCT
19:07 70.1 °F 51.7 °F 29.59 in West 5.7 mph 10.0 mph 52 % 0.00 in 19.0 W/m2 BKN
19:12 69.8 °F 50.9 °F 29.59 in WSW 6.0 mph 11.5 mph 51 % 0.00 in 18.0 W/m2 SCT
19:17 69.7 °F 50.8 °F 29.60 in WNW 7.7 mph 11.5 mph 51 % 0.00 in 16.0 W/m2 FEW
19:22 69.6 °F 50.7 °F 29.60 in WSW 4.8 mph 7.0 mph 51 % 0.00 in 12.0 W/m2 FEW
19:27 69.7 °F 47.4 °F 29.60 in West 9.3 mph 11.5 mph 45 % 0.00 in 12.0 W/m2 CLR
19:32 69.7 °F 47.4 °F 29.61 in West 12.6 mph 21.9 mph 45 % 0.00 in 0.0 W/m2 CLR
19:37 69.6 °F 46.7 °F 29.61 in West 8.5 mph 18.0 mph 44 % 0.00 in 0.0 W/m2 CLR
19:42 69.2 °F 46.9 °F 29.62 in WNW 7.4 mph 11.5 mph 45 % 0.00 in 0.0 W/m2 CLR
19:47 68.9 °F 46.1 °F 29.62 in West 6.7 mph 19.6 mph 44 % 0.00 in 0.0 W/m2 CLR
19:52 68.6 °F 46.4 °F 29.62 in WSW 5.7 mph 11.5 mph 45 % 0.00 in 0.0 W/m2 CLR
19:57 68.2 °F 46.0 °F 29.62 in West 9.0 mph 11.5 mph 45 % 0.00 in 0.0 W/m2 CLR
20:02 67.8 °F 45.7 °F 29.62 in West 8.5 mph 11.5 mph 45 % 0.00 in 0.0 W/m2 CLR
20:07 67.4 °F 45.9 °F 29.63 in WNW 6.6 mph 12.7 mph 46 % 0.00 in 0.0 W/m2 CLR
20:12 67.1 °F 46.2 °F 29.64 in WSW 7.2 mph 9.2 mph 47 % 0.00 in 0.0 W/m2 CLR
20:17 66.7 °F 46.4 °F 29.64 in West 1.1 mph 5.8 mph 48 % 0.00 in 0.0 W/m2 CLR
20:22 66.1 °F 46.4 °F 29.64 in WSW 3.1 mph 6.9 mph 49 % 0.00 in 0.0 W/m2 CLR
20:27 65.5 °F 46.9 °F 29.65 in WSW 0.3 mph 3.5 mph 51 % 0.00 in 0.0 W/m2 CLR
20:32 65.0 °F 46.9 °F 29.65 in Calm   1.2 mph 52 % 0.00 in 0.0 W/m2 CLR
20:37 64.2 °F 47.2 °F 29.65 in WSW 1.0 mph 2.0 mph 54 % 0.00 in 0.0 W/m2 CLR
20:42 63.5 °F 47.5 °F 29.66 in Calm     56 % 0.00 in 0.0 W/m2 CLR
20:47 63.1 °F 47.1 °F 29.66 in Calm     56 % 0.00 in 0.0 W/m2 CLR
20:52 62.6 °F 47.1 °F 29.66 in WSW 0.1 mph 1.0 mph 57 % 0.00 in 0.0 W/m2 CLR
20:57 63.0 °F 47.5 °F 29.67 in WSW 0.4 mph 5.0 mph 57 % 0.00 in 0.0 W/m2 CLR
21:02 63.4 °F 46.9 °F 29.67 in WSW 7.8 mph 8.1 mph 55 % 0.00 in 0.0 W/m2 CLR
21:07 64.1 °F 46.6 °F 29.67 in WNW 3.9 mph 9.2 mph 53 % 0.00 in 0.0 W/m2 CLR
21:12 64.4 °F 46.4 °F 29.67 in WNW 7.3 mph 9.2 mph 52 % 0.00 in 0.0 W/m2 CLR
21:17 64.5 °F 46.0 °F 29.68 in West 5.8 mph 11.5 mph 51 % 0.00 in 0.0 W/m2 CLR
21:22 64.5 °F 45.4 °F 29.68 in West 7.6 mph 10.4 mph 50 % 0.00 in 0.0 W/m2 CLR
21:27 64.2 °F 45.2 °F 29.68 in West 6.7 mph 15.0 mph 50 % 0.00 in 0.0 W/m2 CLR
21:32 64.3 °F 44.7 °F 29.68 in West 7.9 mph 11.5 mph 49 % 0.00 in 0.0 W/m2 CLR
21:37 64.5 °F 44.4 °F 29.69 in West 4.2 mph 8.1 mph 48 % 0.00 in 0.0 W/m2 CLR
21:42 64.5 °F 44.9 °F 29.69 in West 8.3 mph 8.3 mph 49 % 0.00 in 0.0 W/m2 CLR
21:47 64.1 °F 44.5 °F 29.69 in West 3.9 mph 9.2 mph 49 % 0.00 in 0.0 W/m2 CLR
21:52 63.8 °F 44.3 °F 29.69 in West 6.4 mph 10.4 mph 49 % 0.00 in 0.0 W/m2 CLR
21:57 63.4 °F 44.4 °F 29.69 in WSW 2.4 mph 3.5 mph 50 % 0.00 in 0.0 W/m2 CLR
22:02 63.4 °F 43.9 °F 29.69 in West 4.9 mph 13.8 mph 49 % 0.00 in 0.0 W/m2 CLR
22:08 63.5 °F 44.0 °F 29.69 in WSW 5.8 mph 9.2 mph 49 % 0.00 in 0.0 W/m2 CLR
22:13 63.5 °F 44.0 °F 29.69 in West 5.1 mph 6.9 mph 49 % 0.00 in 0.0 W/m2 CLR
22:18 63.4 °F 43.9 °F 29.70 in WSW 1.7 mph 6.9 mph 49 % 0.00 in 0.0 W/m2 CLR
22:23 63.2 °F 44.2 °F 29.70 in SW 2.4 mph 6.9 mph 50 % 0.00 in 0.0 W/m2 CLR
22:28 62.9 °F 44.0 °F 29.70 in WSW 0.2 mph   50 % 0.00 in 0.0 W/m2 CLR
22:33 62.7 °F 44.3 °F 29.70 in SW 0.6 mph 3.0 mph 51 % 0.00 in 0.0 W/m2 CLR
22:38 62.2 °F 44.3 °F 29.70 in SW 0.4 mph 6.9 mph 52 % 0.00 in 0.0 W/m2 CLR
22:39 62.1 °F 44.8 °F 29.70 in WSW 0.3 mph 3.5 mph 53 % 0.00 in 0.0 W/m2 CLR
22:44 61.8 °F 45.0 °F 29.70 in Calm   2.3 mph 54 % 0.00 in 0.0 W/m2 CLR
22:49 61.6 °F 44.8 °F 29.70 in Calm   1.2 mph 54 % 0.00 in 0.0 W/m2 CLR
22:54 61.5 °F 45.2 °F 29.70 in Calm     55 % 0.00 in 0.0 W/m2 CLR
22:59 61.4 °F 45.1 °F 29.71 in Calm     55 % 0.00 in 0.0 W/m2 CLR
23:04 61.2 °F 45.4 °F 29.71 in Calm     56 % 0.00 in 0.0 W/m2 CLR
23:09 61.2 °F 45.4 °F 29.71 in WSW 5.1 mph 5.1 mph 56 % 0.00 in 0.0 W/m2 CLR
23:14 61.6 °F 44.8 °F 29.70 in SW 10.1 mph 10.1 mph 54 % 0.00 in 0.0 W/m2 CLR
23:19 62.2 °F 44.9 °F 29.71 in West 5.9 mph 10.4 mph 53 % 0.00 in 0.0 W/m2 CLR
23:24 62.4 °F 45.0 °F 29.71 in West 5.2 mph 7.0 mph 53 % 0.00 in 0.0 W/m2 CLR
23:29 62.3 °F 44.9 °F 29.71 in Calm   5.8 mph 53 % 0.00 in 0.0 W/m2 CLR
23:34 62.0 °F 44.7 °F 29.71 in WSW 1.1 mph 2.3 mph 53 % 0.00 in 0.0 W/m2 CLR
23:39 62.0 °F 44.7 °F 29.72 in WSW 5.9 mph 11.0 mph 53 % 0.00 in 0.0 W/m2 CLR
23:44 62.0 °F 44.7 °F 29.72 in WSW 2.1 mph 4.0 mph 53 % 0.00 in 0.0 W/m2 CLR
23:49 62.1 °F 44.8 °F 29.72 in SW 1.9 mph 3.5 mph 53 % 0.00 in 0.0 W/m2 CLR
23:54 62.0 °F 44.7 °F 29.72 in SW 0.5 mph 2.3 mph 53 % 0.00 in 0.0 W/m2 CLR
23:59 61.8 °F 44.5 °F 29.72 in West 0.1 mph 5.8 mph 53 % 0.00 in 0.0 W/m2 CLR
Air Products Campus Weather
Compliments of Weather Underground - 3.5 mb